Terminal Aerodrome Forecast
Issued by NWS

Home | Current Version | Previous Version | Text Only | Print | Product List | Glossary On
Versions: 1 2 3 4 5 6 7 8 9 10 11 12 13 14 15 16 17 18 19 20 21 22 23 24 25 26 27 28 29 30 31 32
000
FTUS44 KEWX 210826 AAB
TAFSSF
TAF AMD
KSSF 210826Z 2108/2206 13011KT P6SM VCSH BKN018
     FM211100 03012KT P6SM VCSH OVC015
     FM211600 03012KT 3SM -SHRA BR OVC008
     FM212000 01013KT 2SM -DZ BR OVC007
     FM220200 36013KT P6SM OVC015=

USA.gov is the U.S. government's official web portal to all federal, state and local government web resources and services.